sensor_id;sensor_type;location;lat;lon;timestamp;pressure;altitude;pressure_sealevel;temperature;humidity
44481;BME280;30184;42.018;23.670;2023-10-19T00:00:15;91642.28;;;8.78;100.00
44481;BME280;30184;42.018;23.670;2023-10-19T00:02:50;91690.84;;;8.85;100.00
44481;BME280;30184;42.018;23.670;2023-10-19T00:05:20;91556.44;;;8.19;100.00
44481;BME280;30184;42.018;23.670;2023-10-19T00:07:56;91586.84;;;8.46;100.00
44481;BME280;30184;42.018;23.670;2023-10-19T00:10:29;91636.88;;;8.78;100.00
44481;BME280;30184;42.018;23.670;2023-10-19T00:13:01;91639.22;;;8.76;100.00
44481;BME280;30184;42.018;23.670;2023-10-19T00:15:33;91562.47;;;8.27;100.00
44481;BME280;30184;42.018;23.670;2023-10-19T00:18:07;91674.03;;;8.74;100.00
44481;BME280;30184;42.018;23.670;2023-10-19T00:20:49;91636.16;;;8.74;100.00
44481;BME280;30184;42.018;23.670;2023-10-19T00:23:32;91607.34;;;8.44;100.00
44481;BME280;30184;42.018;23.670;2023-10-19T00:26:03;91616.66;;;8.63;100.00
44481;BME280;30184;42.018;23.670;2023-10-19T00:28:38;91625.84;;;8.69;100.00
44481;BME280;30184;42.018;23.670;2023-10-19T00:31:07;91546.09;;;8.14;100.00
44481;BME280;30184;42.018;23.670;2023-10-19T00:33:37;91628.59;;;8.65;100.00
44481;BME280;30184;42.018;23.670;2023-10-19T00:36:07;91629.44;;;8.62;100.00
44481;BME280;30184;42.018;23.670;2023-10-19T00:38:41;91621.75;;;8.60;100.00
44481;BME280;30184;42.018;23.670;2023-10-19T00:41:24;91621.31;;;8.62;100.00
44481;BME280;30184;42.018;23.670;2023-10-19T00:43:57;91651.81;;;8.63;100.00
44481;BME280;30184;42.018;23.670;2023-10-19T00:46:31;91611.13;;;8.50;100.00
44481;BME280;30184;42.018;23.670;2023-10-19T00:49:06;91611.34;;;8.59;100.00
44481;BME280;30184;42.018;23.670;2023-10-19T00:51:39;91617.31;;;8.50;100.00
44481;BME280;30184;42.018;23.670;2023-10-19T00:54:23;91613.28;;;8.58;100.00
44481;BME280;30184;42.018;23.670;2023-10-19T00:57:02;91573.53;;;8.12;100.00
44481;BME280;30184;42.018;23.670;2023-10-19T00:59:38;91616.59;;;8.46;100.00
44481;BME280;30184;42.018;23.670;2023-10-19T01:02:11;91621.09;;;8.53;100.00
44481;BME280;30184;42.018;23.670;2023-10-19T01:04:49;91580.97;;;8.28;100.00
44481;BME280;30184;42.018;23.670;2023-10-19T01:07:24;91615.78;;;8.49;100.00
44481;BME280;30184;42.018;23.670;2023-10-19T01:09:59;91625.41;;;8.50;100.00
44481;BME280;30184;42.018;23.670;2023-10-19T01:12:32;91610.38;;;8.49;100.00
44481;BME280;30184;42.018;23.670;2023-10-19T01:15:09;91560.09;;;8.09;100.00
44481;BME280;30184;42.018;23.670;2023-10-19T01:17:41;91613.06;;;8.49;100.00
44481;BME280;30184;42.018;23.670;2023-10-19T01:20:12;91589.22;;;8.21;100.00
44481;BME280;30184;42.018;23.670;2023-10-19T01:22:52;91605.91;;;8.39;100.00
44481;BME280;30184;42.018;23.670;2023-10-19T01:25:42;91612.72;;;8.47;100.00
44481;BME280;30184;42.018;23.670;2023-10-19T01:28:17;91632.13;;;8.19;100.00
44481;BME280;30184;42.018;23.670;2023-10-19T01:30:47;91605.31;;;8.51;100.00
44481;BME280;30184;42.018;23.670;2023-10-19T01:33:20;91619.59;;;8.52;100.00
44481;BME280;30184;42.018;23.670;2023-10-19T01:35:50;91605.72;;;8.50;100.00
44481;BME280;30184;42.018;23.670;2023-10-19T01:38:39;91612.16;;;8.56;100.00
44481;BME280;30184;42.018;23.670;2023-10-19T01:41:09;91606.34;;;8.57;100.00
44481;BME280;30184;42.018;23.670;2023-10-19T01:43:42;91608.63;;;8.59;100.00
44481;BME280;30184;42.018;23.670;2023-10-19T01:46:12;91608.63;;;8.59;100.00
44481;BME280;30184;42.018;23.670;2023-10-19T01:48:42;91603.28;;;8.55;100.00
44481;BME280;30184;42.018;23.670;2023-10-19T01:51:12;91600.16;;;8.57;98.35
44481;BME280;30184;42.018;23.670;2023-10-19T01:53:43;91610.22;;;8.56;96.32
44481;BME280;30184;42.018;23.670;2023-10-19T01:56:14;91601.75;;;8.54;94.03
44481;BME280;30184;42.018;23.670;2023-10-19T01:58:44;91590.91;;;8.35;92.73
44481;BME280;30184;42.018;23.670;2023-10-19T02:01:16;91626.00;;;8.38;92.21
44481;BME280;30184;42.018;23.670;2023-10-19T02:03:48;91596.84;;;8.49;94.72
44481;BME280;30184;42.018;23.670;2023-10-19T02:06:21;91603.84;;;8.47;96.56
44481;BME280;30184;42.018;23.670;2023-10-19T02:08:59;91598.84;;;8.45;96.26
44481;BME280;30184;42.018;23.670;2023-10-19T02:11:37;91595.38;;;8.45;95.37
44481;BME280;30184;42.018;23.670;2023-10-19T02:14:07;91594.19;;;8.46;95.21
44481;BME280;30184;42.018;23.670;2023-10-19T02:16:44;91594.19;;;8.46;95.18
44481;BME280;30184;42.018;23.670;2023-10-19T02:19:14;91596.47;;;8.47;95.46
44481;BME280;30184;42.018;23.670;2023-10-19T02:21:44;91593.78;;;8.47;96.82
44481;BME280;30184;42.018;23.670;2023-10-19T02:24:17;91493.41;;;7.82;97.43
44481;BME280;30184;42.018;23.670;2023-10-19T02:26:49;91612.09;;;8.40;97.91
44481;BME280;30184;42.018;23.670;2023-10-19T02:29:19;91598.00;;;8.48;98.68
44481;BME280;30184;42.018;23.670;2023-10-19T02:31:50;91601.91;;;8.47;99.07
44481;BME280;30184;42.018;23.670;2023-10-19T02:34:20;91602.72;;;8.44;98.32
44481;BME280;30184;42.018;23.670;2023-10-19T02:36:52;91556.50;;;8.15;97.53
44481;BME280;30184;42.018;23.670;2023-10-19T02:39:24;91603.91;;;8.43;96.39
44481;BME280;30184;42.018;23.670;2023-10-19T02:41:56;91595.03;;;8.43;96.07
44481;BME280;30184;42.018;23.670;2023-10-19T02:44:29;91601.22;;;8.43;96.08
44481;BME280;30184;42.018;23.670;2023-10-19T02:46:59;91605.84;;;8.43;96.04
44481;BME280;30184;42.018;23.670;2023-10-19T02:49:30;91593.56;;;8.38;96.00
44481;BME280;30184;42.018;23.670;2023-10-19T02:51:59;91604.66;;;8.44;94.96
44481;BME280;30184;42.018;23.670;2023-10-19T02:54:33;91607.78;;;8.42;91.47
44481;BME280;30184;42.018;23.670;2023-10-19T02:57:03;91586.53;;;8.21;91.24
44481;BME280;30184;42.018;23.670;2023-10-19T02:59:35;91601.28;;;8.40;90.55
44481;BME280;30184;42.018;23.670;2023-10-19T03:02:04;91607.44;;;8.40;90.03
44481;BME280;30184;42.018;23.670;2023-10-19T03:04:45;91605.97;;;8.36;89.78
44481;BME280;30184;42.018;23.670;2023-10-19T03:07:14;91520.06;;;7.80;91.04
44481;BME280;30184;42.018;23.670;2023-10-19T03:09:45;91530.88;;;7.80;93.03
44481;BME280;30184;42.018;23.670;2023-10-19T03:12:17;91605.66;;;8.30;94.10
44481;BME280;30184;42.018;23.670;2023-10-19T03:14:47;91609.94;;;8.31;94.07
44481;BME280;30184;42.018;23.670;2023-10-19T03:17:16;91607.31;;;8.24;93.36
44481;BME280;30184;42.018;23.670;2023-10-19T03:19:46;91606.06;;;8.29;93.28
44481;BME280;30184;42.018;23.670;2023-10-19T03:22:14;91600.66;;;8.29;92.46
44481;BME280;30184;42.018;23.670;2023-10-19T03:24:46;91611.53;;;8.25;91.63
44481;BME280;30184;42.018;23.670;2023-10-19T03:27:15;91528.28;;;7.73;91.43
44481;BME280;30184;42.018;23.670;2023-10-19T03:29:46;91588.09;;;8.18;92.06
44481;BME280;30184;42.018;23.670;2023-10-19T03:32:21;91612.97;;;8.33;92.71
44481;BME280;30184;42.018;23.670;2023-10-19T03:34:55;91608.00;;;8.32;92.36
44481;BME280;30184;42.018;23.670;2023-10-19T03:37:26;91609.06;;;8.34;92.87
44481;BME280;30184;42.018;23.670;2023-10-19T03:39:59;91613.31;;;8.35;94.54
44481;BME280;30184;42.018;23.670;2023-10-19T03:42:34;91605.19;;;8.35;96.06
44481;BME280;30184;42.018;23.670;2023-10-19T03:45:09;91549.06;;;8.00;96.79
44481;BME280;30184;42.018;23.670;2023-10-19T03:47:40;91595.91;;;8.36;97.54
44481;BME280;30184;42.018;23.670;2023-10-19T03:50:12;91597.53;;;8.34;97.37
44481;BME280;30184;42.018;23.670;2023-10-19T03:52:48;91603.72;;;8.31;93.98
44481;BME280;30184;42.018;23.670;2023-10-19T03:55:19;91595.25;;;8.29;94.00
44481;BME280;30184;42.018;23.670;2023-10-19T03:57:51;91602.59;;;8.28;92.34
44481;BME280;30184;42.018;23.670;2023-10-19T04:00:23;91585.56;;;8.08;90.97
44481;BME280;30184;42.018;23.670;2023-10-19T04:02:55;91599.91;;;8.28;90.25
44481;BME280;30184;42.018;23.670;2023-10-19T04:05:26;91598.38;;;8.27;89.04
44481;BME280;30184;42.018;23.670;2023-10-19T04:07:56;91592.75;;;8.18;87.48
44481;BME280;30184;42.018;23.670;2023-10-19T04:10:28;91599.22;;;8.24;86.43
44481;BME280;30184;42.018;23.670;2023-10-19T04:13:12;91601.91;;;8.24;87.04
44481;BME280;30184;42.018;23.670;2023-10-19T04:15:41;91580.41;;;8.17;87.16
44481;BME280;30184;42.018;23.670;2023-10-19T04:18:13;91591.94;;;8.21;87.44
44481;BME280;30184;42.018;23.670;2023-10-19T04:20:43;91587.69;;;8.20;87.65
44481;BME280;30184;42.018;23.670;2023-10-19T04:23:27;91570.53;;;8.07;88.03
44481;BME280;30184;42.018;23.670;2023-10-19T04:25:58;91589.56;;;8.23;87.60
44481;BME280;30184;42.018;23.670;2023-10-19T04:28:33;91596.16;;;8.22;86.85
44481;BME280;30184;42.018;23.670;2023-10-19T04:31:06;91396.41;;;6.82;86.33
44481;BME280;30184;42.018;23.670;2023-10-19T04:33:36;91589.69;;;8.16;85.34
44481;BME280;30184;42.018;23.670;2023-10-19T04:36:06;91618.69;;;8.15;85.16
44481;BME280;30184;42.018;23.670;2023-10-19T04:38:39;91611.19;;;8.00;84.56
44481;BME280;30184;42.018;23.670;2023-10-19T04:41:10;91580.31;;;8.01;84.67
44481;BME280;30184;42.018;23.670;2023-10-19T04:43:40;91580.19;;;7.84;84.65
44481;BME280;30184;42.018;23.670;2023-10-19T04:46:14;91606.19;;;7.98;84.67
44481;BME280;30184;42.018;23.670;2023-10-19T04:48:46;91594.22;;;7.99;84.70
44481;BME280;30184;42.018;23.670;2023-10-19T04:51:17;91562.19;;;7.78;84.27
44481;BME280;30184;42.018;23.670;2023-10-19T04:53:46;91588.78;;;8.03;85.13
44481;BME280;30184;42.018;23.670;2023-10-19T04:56:18;91590.31;;;8.04;84.76
44481;BME280;30184;42.018;23.670;2023-10-19T04:58:48;91606.63;;;7.97;85.00
44481;BME280;30184;42.018;23.670;2023-10-19T05:01:17;91604.97;;;8.03;84.55
44481;BME280;30184;42.018;23.670;2023-10-19T05:03:47;91599.94;;;8.05;85.13
44481;BME280;30184;42.018;23.670;2023-10-19T05:06:17;91597.56;;;8.07;84.88
44481;BME280;30184;42.018;23.670;2023-10-19T05:08:46;91601.78;;;8.08;85.00
44481;BME280;30184;42.018;23.670;2023-10-19T05:11:16;91599.09;;;8.08;84.69
44481;BME280;30184;42.018;23.670;2023-10-19T05:13:47;91554.41;;;7.80;85.02
44481;BME280;30184;42.018;23.670;2023-10-19T05:16:16;91610.97;;;8.14;85.37
44481;BME280;30184;42.018;23.670;2023-10-19T05:18:46;91522.38;;;7.59;85.61
44481;BME280;30184;42.018;23.670;2023-10-19T05:21:15;91610.13;;;8.17;86.08
44481;BME280;30184;42.018;23.670;2023-10-19T05:23:45;91618.25;;;8.17;84.47
44481;BME280;30184;42.018;23.670;2023-10-19T05:26:14;91623.31;;;8.15;84.59
44481;BME280;30184;42.018;23.670;2023-10-19T05:28:44;91650.03;;;8.09;85.45
44481;BME280;30184;42.018;23.670;2023-10-19T05:31:16;91632.94;;;8.16;82.76
44481;BME280;30184;42.018;23.670;2023-10-19T05:33:46;91629.53;;;8.12;82.13
44481;BME280;30184;42.018;23.670;2023-10-19T05:36:16;91627.28;;;8.07;81.52
44481;BME280;30184;42.018;23.670;2023-10-19T05:38:46;91625.78;;;8.06;81.85
44481;BME280;30184;42.018;23.670;2023-10-19T05:41:15;91622.72;;;8.04;81.39
44481;BME280;30184;42.018;23.670;2023-10-19T05:43:46;91631.59;;;8.04;82.12
44481;BME280;30184;42.018;23.670;2023-10-19T05:46:19;91632.47;;;7.98;82.16
44481;BME280;30184;42.018;23.670;2023-10-19T05:48:49;91657.78;;;8.07;82.39
44481;BME280;30184;42.018;23.670;2023-10-19T05:51:19;91631.88;;;8.10;82.23
44481;BME280;30184;42.018;23.670;2023-10-19T05:53:49;91632.25;;;8.12;82.75
44481;BME280;30184;42.018;23.670;2023-10-19T05:56:20;91629.19;;;8.10;81.95
44481;BME280;30184;42.018;23.670;2023-10-19T05:58:50;91630.72;;;8.11;81.93
44481;BME280;30184;42.018;23.670;2023-10-19T06:01:23;91625.31;;;8.11;82.03
44481;BME280;30184;42.018;23.670;2023-10-19T06:03:54;91658.91;;;8.10;82.62
44481;BME280;30184;42.018;23.670;2023-10-19T06:06:24;91631.84;;;8.13;82.82
44481;BME280;30184;42.018;23.670;2023-10-19T06:08:53;91628.38;;;8.13;82.96
44481;BME280;30184;42.018;23.670;2023-10-19T06:11:23;91632.06;;;8.22;82.00
44481;BME280;30184;42.018;23.670;2023-10-19T06:13:52;91630.88;;;8.23;81.08
44481;BME280;30184;42.018;23.670;2023-10-19T06:16:23;91638.22;;;8.23;81.25
44481;BME280;30184;42.018;23.670;2023-10-19T06:18:53;91551.88;;;7.69;80.14
44481;BME280;30184;42.018;23.670;2023-10-19T06:21:23;91556.13;;;7.70;80.86
44481;BME280;30184;42.018;23.670;2023-10-19T06:23:52;91550.63;;;7.77;81.27
44481;BME280;30184;42.018;23.670;2023-10-19T06:26:22;91636.97;;;8.31;81.01
44481;BME280;30184;42.018;23.670;2023-10-19T06:28:52;91572.44;;;7.86;80.59
44481;BME280;30184;42.018;23.670;2023-10-19T06:31:27;91548.25;;;7.79;80.89
44481;BME280;30184;42.018;23.670;2023-10-19T06:33:57;91633.72;;;8.40;81.76
44481;BME280;30184;42.018;23.670;2023-10-19T06:36:28;91680.03;;;8.42;81.48
44481;BME280;30184;42.018;23.670;2023-10-19T06:38:58;91638.22;;;8.46;81.13
44481;BME280;30184;42.018;23.670;2023-10-19T06:41:34;91672.91;;;8.51;80.74
44481;BME280;30184;42.018;23.670;2023-10-19T06:44:03;91645.75;;;8.58;80.04
44481;BME280;30184;42.018;23.670;2023-10-19T06:46:34;91646.41;;;8.63;79.84
44481;BME280;30184;42.018;23.670;2023-10-19T06:49:04;91583.41;;;8.22;78.42
44481;BME280;30184;42.018;23.670;2023-10-19T06:51:34;91646.72;;;8.68;77.86
44481;BME280;30184;42.018;23.670;2023-10-19T06:54:04;91655.97;;;8.71;77.97
44481;BME280;30184;42.018;23.670;2023-10-19T06:56:35;91655.09;;;8.74;77.29
44481;BME280;30184;42.018;23.670;2023-10-19T06:59:06;91623.19;;;8.65;78.30
44481;BME280;30184;42.018;23.670;2023-10-19T07:01:37;91650.31;;;8.81;77.92
44481;BME280;30184;42.018;23.670;2023-10-19T07:04:06;91649.84;;;8.86;77.86
44481;BME280;30184;42.018;23.670;2023-10-19T07:06:35;91649.72;;;8.93;78.71
44481;BME280;30184;42.018;23.670;2023-10-19T07:09:06;91665.03;;;9.00;78.57
44481;BME280;30184;42.018;23.670;2023-10-19T07:11:38;91659.91;;;9.06;78.44
44481;BME280;30184;42.018;23.670;2023-10-19T07:14:07;91659.00;;;9.12;78.60
44481;BME280;30184;42.018;23.670;2023-10-19T07:16:39;91658.09;;;9.19;79.02
44481;BME280;30184;42.018;23.670;2023-10-19T07:19:08;91651.59;;;9.16;79.34
44481;BME280;30184;42.018;23.670;2023-10-19T07:21:38;91665.31;;;9.25;78.22
44481;BME280;30184;42.018;23.670;2023-10-19T07:24:10;91664.56;;;9.25;77.74
44481;BME280;30184;42.018;23.670;2023-10-19T07:26:39;91651.13;;;9.18;78.61
44481;BME280;30184;42.018;23.670;2023-10-19T07:29:19;91643.94;;;9.11;79.19
44481;BME280;30184;42.018;23.670;2023-10-19T07:31:50;91665.84;;;9.36;79.73
44481;BME280;30184;42.018;23.670;2023-10-19T07:34:23;91583.63;;;8.91;79.99
44481;BME280;30184;42.018;23.670;2023-10-19T07:36:55;91661.81;;;9.45;80.43
44481;BME280;30184;42.018;23.670;2023-10-19T07:39:26;91664.53;;;9.45;80.59
44481;BME280;30184;42.018;23.670;2023-10-19T07:41:57;91654.00;;;9.47;80.78
44481;BME280;30184;42.018;23.670;2023-10-19T07:44:26;91646.94;;;9.53;80.79
44481;BME280;30184;42.018;23.670;2023-10-19T07:46:59;91642.94;;;9.57;81.04
44481;BME280;30184;42.018;23.670;2023-10-19T07:49:28;91679.13;;;9.67;81.68
44481;BME280;30184;42.018;23.670;2023-10-19T07:51:58;91643.31;;;9.76;82.18
44481;BME280;30184;42.018;23.670;2023-10-19T07:54:28;91643.66;;;9.78;82.49
44481;BME280;30184;42.018;23.670;2023-10-19T07:56:58;91652.22;;;9.76;83.32
44481;BME280;30184;42.018;23.670;2023-10-19T07:59:31;91646.38;;;9.78;83.53
44481;BME280;30184;42.018;23.670;2023-10-19T08:02:01;91647.66;;;9.89;83.59
44481;BME280;30184;42.018;23.670;2023-10-19T08:04:32;91652.06;;;9.99;83.90
44481;BME280;30184;42.018;23.670;2023-10-19T08:07:01;91641.91;;;10.03;84.05
44481;BME280;30184;42.018;23.670;2023-10-19T08:09:30;91636.94;;;10.18;84.08
44481;BME280;30184;42.018;23.670;2023-10-19T08:12:02;91647.94;;;10.27;84.21
44481;BME280;30184;42.018;23.670;2023-10-19T08:14:33;91735.16;;;10.26;83.50
44481;BME280;30184;42.018;23.670;2023-10-19T08:17:04;91645.63;;;10.42;83.29
44481;BME280;30184;42.018;23.670;2023-10-19T08:19:33;91563.63;;;10.05;82.80
44481;BME280;30184;42.018;23.670;2023-10-19T08:22:03;91650.16;;;10.77;82.37
44481;BME280;30184;42.018;23.670;2023-10-19T08:24:33;91625.84;;;10.87;82.06
44481;BME280;30184;42.018;23.670;2023-10-19T08:27:03;91627.13;;;11.11;81.36
44481;BME280;30184;42.018;23.670;2023-10-19T08:29:33;91625.75;;;11.19;80.21
44481;BME280;30184;42.018;23.670;2023-10-19T08:32:05;91351.41;;;9.34;79.73
44481;BME280;30184;42.018;23.670;2023-10-19T08:34:35;91625.41;;;11.17;79.84
44481;BME280;30184;42.018;23.670;2023-10-19T08:37:04;91633.59;;;11.42;79.11
44481;BME280;30184;42.018;23.670;2023-10-19T08:39:35;91639.59;;;11.50;78.70
44481;BME280;30184;42.018;23.670;2023-10-19T08:42:05;91633.19;;;11.56;79.09
44481;BME280;30184;42.018;23.670;2023-10-19T08:44:35;91626.88;;;11.59;78.91
44481;BME280;30184;42.018;23.670;2023-10-19T08:47:06;91541.00;;;11.11;78.72
44481;BME280;30184;42.018;23.670;2023-10-19T08:49:36;91621.59;;;11.81;78.08
44481;BME280;30184;42.018;23.670;2023-10-19T08:52:07;91664.88;;;11.88;77.88
44481;BME280;30184;42.018;23.670;2023-10-19T08:54:36;91620.84;;;11.93;77.50
44481;BME280;30184;42.018;23.670;2023-10-19T08:57:05;91611.69;;;12.13;77.15
44481;BME280;30184;42.018;23.670;2023-10-19T08:59:35;91616.47;;;12.21;76.40
44481;BME280;30184;42.018;23.670;2023-10-19T09:02:07;91607.28;;;12.28;75.65
44481;BME280;30184;42.018;23.670;2023-10-19T09:04:41;91614.25;;;12.29;75.28
44481;BME280;30184;42.018;23.670;2023-10-19T09:07:11;91620.91;;;12.28;75.04
44481;BME280;30184;42.018;23.670;2023-10-19T09:09:42;91620.13;;;12.27;75.42
44481;BME280;30184;42.018;23.670;2023-10-19T09:12:11;91621.66;;;12.16;76.19
44481;BME280;30184;42.018;23.670;2023-10-19T09:14:41;91614.59;;;12.18;76.44
44481;BME280;30184;42.018;23.670;2023-10-19T09:17:12;91624.28;;;12.19;76.06
44481;BME280;30184;42.018;23.670;2023-10-19T09:19:43;91623.75;;;12.12;76.57
44481;BME280;30184;42.018;23.670;2023-10-19T09:22:15;91612.03;;;12.02;77.76
44481;BME280;30184;42.018;23.670;2023-10-19T09:24:50;91628.44;;;12.11;77.28
44481;BME280;30184;42.018;23.670;2023-10-19T09:27:21;91623.06;;;12.33;77.20
44481;BME280;30184;42.018;23.670;2023-10-19T09:29:50;91615.19;;;12.48;76.26
44481;BME280;30184;42.018;23.670;2023-10-19T09:32:22;91554.56;;;12.00;75.56
44481;BME280;30184;42.018;23.670;2023-10-19T09:34:51;91617.97;;;12.91;74.67
44481;BME280;30184;42.018;23.670;2023-10-19T09:37:21;91609.66;;;12.73;72.62
44481;BME280;30184;42.018;23.670;2023-10-19T09:39:51;91561.41;;;12.74;72.49
44481;BME280;30184;42.018;23.670;2023-10-19T09:42:22;91605.78;;;13.18;73.01
44481;BME280;30184;42.018;23.670;2023-10-19T09:45:00;91596.28;;;13.22;72.30
44481;BME280;30184;42.018;23.670;2023-10-19T09:47:38;91607.81;;;13.26;72.04
44481;BME280;30184;42.018;23.670;2023-10-19T09:50:11;91628.28;;;13.31;72.54
44481;BME280;30184;42.018;23.670;2023-10-19T09:52:41;91610.19;;;13.46;72.17
44481;BME280;30184;42.018;23.670;2023-10-19T09:55:14;91593.31;;;13.60;71.23
44481;BME280;30184;42.018;23.670;2023-10-19T09:57:50;91597.91;;;13.72;70.35
44481;BME280;30184;42.018;23.670;2023-10-19T10:00:20;91596.44;;;13.80;70.20
44481;BME280;30184;42.018;23.670;2023-10-19T10:02:53;91587.66;;;13.86;69.83
44481;BME280;30184;42.018;23.670;2023-10-19T10:05:45;91587.81;;;13.91;69.92
44481;BME280;30184;42.018;23.670;2023-10-19T10:08:32;91551.78;;;13.56;70.36
44481;BME280;30184;42.018;23.670;2023-10-19T10:11:17;91576.34;;;13.96;69.58
44481;BME280;30184;42.018;23.670;2023-10-19T10:13:47;91575.44;;;13.99;68.26
44481;BME280;30184;42.018;23.670;2023-10-19T10:16:21;91558.59;;;14.01;69.48
44481;BME280;30184;42.018;23.670;2023-10-19T10:18:55;91583.91;;;13.92;68.09
44481;BME280;30184;42.018;23.670;2023-10-19T10:21:27;91463.94;;;13.52;68.40
44481;BME280;30184;42.018;23.670;2023-10-19T10:23:58;91539.25;;;14.17;67.85
44481;BME280;30184;42.018;23.670;2023-10-19T10:26:29;91534.72;;;14.23;67.46
44481;BME280;30184;42.018;23.670;2023-10-19T10:29:10;91565.19;;;14.31;69.07
44481;BME280;30184;42.018;23.670;2023-10-19T10:31:42;91528.50;;;14.32;68.17
44481;BME280;30184;42.018;23.670;2023-10-19T10:34:42;91500.09;;;13.93;67.05
44481;BME280;30184;42.018;23.670;2023-10-19T10:37:12;91437.94;;;13.78;66.66
44481;BME280;30184;42.018;23.670;2023-10-19T10:39:42;91534.16;;;14.46;66.36
44481;BME280;30184;42.018;23.670;2023-10-19T10:42:13;91447.03;;;13.85;66.86
44481;BME280;30184;42.018;23.670;2023-10-19T10:44:44;91530.78;;;14.33;68.15
44481;BME280;30184;42.018;23.670;2023-10-19T10:47:17;91521.72;;;14.36;67.58
44481;BME280;30184;42.018;23.670;2023-10-19T10:49:53;91507.13;;;14.30;69.12
44481;BME280;30184;42.018;23.670;2023-10-19T10:52:26;91516.25;;;14.36;69.27
44481;BME280;30184;42.018;23.670;2023-10-19T10:54:57;91425.22;;;13.75;69.22
44481;BME280;30184;42.018;23.670;2023-10-19T10:57:31;91522.59;;;14.24;69.27
44481;BME280;30184;42.018;23.670;2023-10-19T11:00:02;91517.28;;;14.30;69.53
44481;BME280;30184;42.018;23.670;2023-10-19T11:02:33;91502.59;;;14.27;69.76
44481;BME280;30184;42.018;23.670;2023-10-19T11:05:05;91429.78;;;13.78;69.43
44481;BME280;30184;42.018;23.670;2023-10-19T11:07:39;91498.03;;;14.24;69.83
44481;BME280;30184;42.018;23.670;2023-10-19T11:10:09;91480.00;;;14.17;70.75
44481;BME280;30184;42.018;23.670;2023-10-19T11:12:39;91480.13;;;14.23;70.86
44481;BME280;30184;42.018;23.670;2023-10-19T11:15:08;91483.75;;;14.29;69.98
44481;BME280;30184;42.018;23.670;2023-10-19T11:17:44;91481.34;;;14.31;69.62
44481;BME280;30184;42.018;23.670;2023-10-19T11:20:23;91439.19;;;14.05;69.35
44481;BME280;30184;42.018;23.670;2023-10-19T11:22:53;91381.56;;;13.66;70.25
44481;BME280;30184;42.018;23.670;2023-10-19T11:25:25;91466.78;;;14.34;69.71
44481;BME280;30184;42.018;23.670;2023-10-19T11:27:56;91458.16;;;14.36;69.14
44481;BME280;30184;42.018;23.670;2023-10-19T11:30:27;91445.56;;;14.38;69.72
44481;BME280;30184;42.018;23.670;2023-10-19T11:32:57;91479.34;;;14.04;69.02
44481;BME280;30184;42.018;23.670;2023-10-19T11:35:30;91432.34;;;14.37;69.85
44481;BME280;30184;42.018;23.670;2023-10-19T11:38:00;91441.50;;;14.43;69.75
44481;BME280;30184;42.018;23.670;2023-10-19T11:40:30;91436.47;;;14.50;67.98
44481;BME280;30184;42.018;23.670;2023-10-19T11:42:59;91421.16;;;14.53;67.21
44481;BME280;30184;42.018;23.670;2023-10-19T11:45:29;91305.34;;;13.81;68.98
44481;BME280;30184;42.018;23.670;2023-10-19T11:47:58;91438.88;;;14.67;68.12
44481;BME280;30184;42.018;23.670;2023-10-19T11:50:29;91403.03;;;14.74;67.57
44481;BME280;30184;42.018;23.670;2023-10-19T11:52:58;91405.66;;;14.68;67.84
44481;BME280;30184;42.018;23.670;2023-10-19T11:55:28;91338.97;;;14.33;67.55
44481;BME280;30184;42.018;23.670;2023-10-19T11:57:57;91405.16;;;14.88;67.29
44481;BME280;30184;42.018;23.670;2023-10-19T12:00:26;91405.22;;;14.61;66.53
44481;BME280;30184;42.018;23.670;2023-10-19T12:03:01;91403.75;;;14.92;66.08
44481;BME280;30184;42.018;23.670;2023-10-19T12:05:32;91355.31;;;14.60;67.67
44481;BME280;30184;42.018;23.670;2023-10-19T12:08:05;91366.22;;;14.69;66.98
44481;BME280;30184;42.018;23.670;2023-10-19T12:10:35;91402.25;;;15.01;67.38
44481;BME280;30184;42.018;23.670;2023-10-19T12:13:05;91391.72;;;15.08;67.51
44481;BME280;30184;42.018;23.670;2023-10-19T12:15:36;91392.31;;;15.12;66.73
44481;BME280;30184;42.018;23.670;2023-10-19T12:18:05;91403.09;;;15.16;67.20
44481;BME280;30184;42.018;23.670;2023-10-19T12:20:37;91393.66;;;15.17;67.35
44481;BME280;30184;42.018;23.670;2023-10-19T12:23:06;91393.81;;;15.13;67.01
44481;BME280;30184;42.018;23.670;2023-10-19T12:25:35;91393.03;;;15.22;68.14
44481;BME280;30184;42.018;23.670;2023-10-19T12:28:16;91396.66;;;15.28;67.36
44481;BME280;30184;42.018;23.670;2023-10-19T12:30:46;91374.56;;;15.08;68.46
44481;BME280;30184;42.018;23.670;2023-10-19T12:33:16;91498.38;;;15.32;67.83
44481;BME280;30184;42.018;23.670;2023-10-19T12:35:47;91402.66;;;15.41;66.15
44481;BME280;30184;42.018;23.670;2023-10-19T12:38:21;91326.81;;;14.94;66.96
44481;BME280;30184;42.018;23.670;2023-10-19T12:40:51;91400.06;;;15.47;67.28
44481;BME280;30184;42.018;23.670;2023-10-19T12:43:21;91407.97;;;15.45;67.00
44481;BME280;30184;42.018;23.670;2023-10-19T12:45:51;91381.66;;;15.56;67.02
44481;BME280;30184;42.018;23.670;2023-10-19T12:48:21;91380.25;;;15.61;66.69
44481;BME280;30184;42.018;23.670;2023-10-19T12:50:54;91377.81;;;15.63;66.20
44481;BME280;30184;42.018;23.670;2023-10-19T12:53:23;91371.59;;;15.62;66.98
44481;BME280;30184;42.018;23.670;2023-10-19T12:55:53;91373.25;;;15.60;65.71
44481;BME280;30184;42.018;23.670;2023-10-19T12:58:22;91365.94;;;15.66;65.68
44481;BME280;30184;42.018;23.670;2023-10-19T13:00:52;91360.00;;;15.67;65.44
44481;BME280;30184;42.018;23.670;2023-10-19T13:03:22;91353.75;;;15.67;66.91
44481;BME280;30184;42.018;23.670;2023-10-19T13:05:56;91349.19;;;15.73;65.96
44481;BME280;30184;42.018;23.670;2023-10-19T13:08:27;91355.69;;;15.76;65.41
44481;BME280;30184;42.018;23.670;2023-10-19T13:10:57;91347.47;;;15.76;64.89
44481;BME280;30184;42.018;23.670;2023-10-19T13:13:31;91377.41;;;15.79;65.94
44481;BME280;30184;42.018;23.670;2023-10-19T13:16:01;91264.03;;;15.09;65.84
44481;BME280;30184;42.018;23.670;2023-10-19T13:18:33;91348.16;;;15.85;64.43